Celestyal Crystal — 9HA2978 — position and weather

sailwx.info

Track history (hours):
 
Tides and Currents Weather Stations Pressure Air Temp Water Temp Dewpoint Dewpoint Depression Visibility Wind Speed Wind Dir Waves Ship Positions

Celestyal Crystal

Last reported at 2015-Jun-26 10:18 UTC. Time now 2015-Jul-02 05:23 UTC.
Position N 37°50' E 024°18'.

Length 162 m; draft 6.1 m.

Type: Passenger vessel. MMSI: 229001000.

Date/timePositionNaut miles runAvg speedWind from/ knotsBaromVisibWave heightAir tempDewpointWater temp
2015-Jun-26 10:18N 37°50' E 024°18'27 2.4
2015-Jun-25 23:07N 37°32' E 024°44'712.1
2015-Jun-25 22:33N 37°32' E 024°53'1212.3
2015-Jun-25 21:33N 37°29' E 025°08'10 9.1
2015-Jun-25 20:31N 37°28' E 025°19'0 0.0
2015-Jun-25 19:31N 37°28' E 025°19'0 0.0
2015-Jun-25 18:31N 37°28' E 025°19'0 0.0
2015-Jun-25 17:31N 37°28' E 025°19'0 0.0
2015-Jun-25 16:31N 37°28' E 025°19'0 0.0
2015-Jun-25 15:31N 37°28' E 025°19'0 0.0
2015-Jun-25 14:31N 37°28' E 025°19'5 4.6
2015-Jun-25 13:32N 37°32' E 025°20'1312.8
2015-Jun-25 12:33N 37°41' E 025°31'  
2015-Jun-22 19:26N 36°02' E 025°29'5 5.9
2015-Jun-22 18:33N 36°07' E 025°26'6 6.0
2015-Jun-22 17:33N 36°12' E 025°24'7 7.1
2015-Jun-22 16:33N 36°19' E 025°21'5 4.9
2015-Jun-22 15:33N 36°23' E 025°24'2 1.7
2015-Jun-22 14:32N 36°25' E 025°25'0 0.1
2015-Jun-22 13:29N 36°25' E 025°25'0 0.1
2015-Jun-22 12:29N 36°25' E 025°25'0 0.0
2015-Jun-22 11:32N 36°25' E 025°25'0 0.1
2015-Jun-22 10:32N 36°25' E 025°25'0 0.0
2015-Jun-22 09:32N 36°25' E 025°25'0 0.0
2015-Jun-22 08:32N 36°25' E 025°25'0 0.0
2015-Jun-22 07:32N 36°25' E 025°25'0 0.0
2015-Jun-22 06:32N 36°25' E 025°25'0 0.1
2015-Jun-22 05:33N 36°25' E 025°25'8 6.0
2015-Jun-22 04:10N 36°33' E 025°25'711.8
2015-Jun-22 03:33N 36°39' E 025°31'1212.3
2015-Jun-22 02:33N 36°48' E 025°41'1212.4
2015-Jun-22 01:33N 36°56' E 025°52'1212.4
2015-Jun-22 00:33N 37°05' E 026°04'1312.1
2015-Jun-21 23:31N 37°13' E 026°16'1111.9
2015-Jun-21 22:33N 37°21' E 026°26'47 4.2
2015-Jun-21 11:32N 37°55' E 027°06'19310.7
2015-Jun-20 17:27N 40°54' E 028°41'1516.5
2015-Jun-20 16:33N 40°59' E 028°59'3 0.3
2015-Jun-20 05:33N 41°02' E 029°00'1212.1
2015-Jun-20 04:33N 40°52' E 028°51'27915.2
2015-Jun-19 10:15N 37°50' E 024°19'27 2.4
2015-Jun-18 23:09N 37°32' E 024°44'712.2
2015-Jun-18 22:33N 37°32' E 024°53'1212.4
2015-Jun-18 21:33N 37°29' E 025°08'9 9.0
2015-Jun-18 20:33N 37°28' E 025°20'0 0.0
2015-Jun-18 19:33N 37°28' E 025°20'0 0.0
2015-Jun-18 18:33N 37°28' E 025°20'0 0.0
2015-Jun-18 17:33N 37°28' E 025°20'0 0.0
2015-Jun-18 16:33N 37°28' E 025°20'0 0.0
2015-Jun-18 15:33N 37°28' E 025°20'0 0.0
2015-Jun-18 14:33N 37°28' E 025°20'5 4.8
2015-Jun-18 13:33N 37°32' E 025°20'1313.4
2015-Jun-18 12:33N 37°42' E 025°32'68 4.8
2015-Jun-17 22:33N 37°18' E 026°53'72 3.4
2015-Jun-17 01:04N 36°21' E 027°46'611.1
2015-Jun-17 00:33N 36°19' E 027°40'3310.8
2015-Jun-16 21:32N 36°00' E 027°06'1211.9
2015-Jun-16 20:31N 35°53' E 026°54'1111.7
2015-Jun-16 19:33N 35°46' E 026°43'1111.4
2015-Jun-16 18:33N 35°40' E 026°32'1211.8
2015-Jun-16 17:33N 35°32' E 026°20'  
Track history (hours):
 
Tides and Currents Weather Stations Pressure Air Temp Water Temp Dewpoint Dewpoint Depression Visibility Wind Speed Wind Dir Waves Ship Positions

Celestyal Crystal

Last reported at 2015-Jun-26 10:18 UTC. Time now 2015-Jul-02 05:23 UTC.
Position N 37°50' E 024°18'.

Length 162 m; draft 6.1 m.

Type: Passenger vessel. MMSI: 229001000.

Date/timePositionNaut miles runAvg speedWind from/ knotsBaromVisibWave heightAir tempDewpointWater temp
2015-Jun-26 10:18N 37°50' E 024°18'27 2.4
2015-Jun-25 23:07N 37°32' E 024°44'712.1
2015-Jun-25 22:33N 37°32' E 024°53'1212.3
2015-Jun-25 21:33N 37°29' E 025°08'10 9.1
2015-Jun-25 20:31N 37°28' E 025°19'0 0.0
2015-Jun-25 19:31N 37°28' E 025°19'0 0.0
2015-Jun-25 18:31N 37°28' E 025°19'0 0.0
2015-Jun-25 17:31N 37°28' E 025°19'0 0.0
2015-Jun-25 16:31N 37°28' E 025°19'0 0.0
2015-Jun-25 15:31N 37°28' E 025°19'0 0.0
2015-Jun-25 14:31N 37°28' E 025°19'5 4.6
2015-Jun-25 13:32N 37°32' E 025°20'1312.8
2015-Jun-25 12:33N 37°41' E 025°31'  
2015-Jun-22 19:26N 36°02' E 025°29'5 5.9
2015-Jun-22 18:33N 36°07' E 025°26'6 6.0
2015-Jun-22 17:33N 36°12' E 025°24'7 7.1
2015-Jun-22 16:33N 36°19' E 025°21'5 4.9
2015-Jun-22 15:33N 36°23' E 025°24'2 1.7
2015-Jun-22 14:32N 36°25' E 025°25'0 0.1
2015-Jun-22 13:29N 36°25' E 025°25'0 0.1
2015-Jun-22 12:29N 36°25' E 025°25'0 0.0
2015-Jun-22 11:32N 36°25' E 025°25'0 0.1
2015-Jun-22 10:32N 36°25' E 025°25'0 0.0
2015-Jun-22 09:32N 36°25' E 025°25'0 0.0
2015-Jun-22 08:32N 36°25' E 025°25'0 0.0
2015-Jun-22 07:32N 36°25' E 025°25'0 0.0
2015-Jun-22 06:32N 36°25' E 025°25'0 0.1
2015-Jun-22 05:33N 36°25' E 025°25'8 6.0
2015-Jun-22 04:10N 36°33' E 025°25'711.8
2015-Jun-22 03:33N 36°39' E 025°31'1212.3
2015-Jun-22 02:33N 36°48' E 025°41'1212.4
2015-Jun-22 01:33N 36°56' E 025°52'1212.4
2015-Jun-22 00:33N 37°05' E 026°04'1312.1
2015-Jun-21 23:31N 37°13' E 026°16'1111.9
2015-Jun-21 22:33N 37°21' E 026°26'47 4.2
2015-Jun-21 11:32N 37°55' E 027°06'19310.7
2015-Jun-20 17:27N 40°54' E 028°41'1516.5
2015-Jun-20 16:33N 40°59' E 028°59'3 0.3
2015-Jun-20 05:33N 41°02' E 029°00'1212.1
2015-Jun-20 04:33N 40°52' E 028°51'27915.2
2015-Jun-19 10:15N 37°50' E 024°19'27 2.4
2015-Jun-18 23:09N 37°32' E 024°44'712.2
2015-Jun-18 22:33N 37°32' E 024°53'1212.4
2015-Jun-18 21:33N 37°29' E 025°08'9 9.0
2015-Jun-18 20:33N 37°28' E 025°20'0 0.0
2015-Jun-18 19:33N 37°28' E 025°20'0 0.0
2015-Jun-18 18:33N 37°28' E 025°20'0 0.0
2015-Jun-18 17:33N 37°28' E 025°20'0 0.0
2015-Jun-18 16:33N 37°28' E 025°20'0 0.0
2015-Jun-18 15:33N 37°28' E 025°20'0 0.0
2015-Jun-18 14:33N 37°28' E 025°20'5 4.8
2015-Jun-18 13:33N 37°32' E 025°20'1313.4
2015-Jun-18 12:33N 37°42' E 025°32'68 4.8
2015-Jun-17 22:33N 37°18' E 026°53'72 3.4
2015-Jun-17 01:04N 36°21' E 027°46'611.1
2015-Jun-17 00:33N 36°19' E 027°40'3310.8
2015-Jun-16 21:32N 36°00' E 027°06'1211.9
2015-Jun-16 20:31N 35°53' E 026°54'1111.7
2015-Jun-16 19:33N 35°46' E 026°43'1111.4
2015-Jun-16 18:33N 35°40' E 026°32'1211.8
2015-Jun-16 17:33N 35°32' E 026°20'  

Dump ship's entire track history